Latest Weather Observations for Dennes Point

IDT60901

Issued at 10:51 pm EDT Thursday 5 March 2015 (issued every 10 minutes, with the page automatically refreshed every 10 minutes)

About weather observations | Map of Hobart area stations | Latest observations for Hobart area | Other Formats
Station Details ID: 094255 Name: DENNES POINT Lat: -43.06 Lon: 147.36 Height: 5.67 m
Data from the previous 72 hours. | See also: Recent months at Dennes Point
Date/Time
EDT
Tmp

°C
App
Tmp
°C
Dew
Point
°C
Rel
Hum
%
Delta-T

°C
Wind Press
QNH
hPa
Press
MSL
hPa
Rain
since
9 am
mm
Dir
 
Spd
km/h
Gust
km/h
Spd
kts
Gust
kts
05/10:30pm 12.9 8.4 6.9 67 2.9 WNW 20 30 11 16 995.1 995.1 0.0
05/10:00pm 13.1 8.5 6.7 65 3.1 W 20 30 11 16 996.3 996.3 0.0
05/09:30pm 12.7 8.1 5.8 63 3.2 W 19 35 10 19 997.0 997.0 0.0
05/09:00pm 12.4 7.8 5.8 64 3.1 WNW 19 33 10 18 997.8 997.8 0.0
05/08:30pm 12.0 7.3 5.2 63 3.1 WNW 19 32 10 17 998.1 998.1 0.0
05/08:00pm 12.0 7.1 5.2 63 3.2 WNW 20 32 11 17 998.8 998.8 0.0
05/07:30pm 11.8 6.0 4.5 61 3.3 W 24 33 13 18 999.4 999.4 0.0
05/07:00pm 12.1 6.7 4.3 59 3.5 WNW 22 32 12 17 1000.0 1000.0 0.0
05/06:35pm 12.5 5.8 5.4 62 3.3 W 30 50 16 27 1000.3 1000.3 0.0
05/06:30pm 12.3 5.0 4.3 58 3.6 W 32 50 17 27 1000.4 1000.4 0.0
05/06:27pm 12.4 5.8 4.4 58 3.6 WNW 28 48 15 26 1000.5 1000.5 0.0
05/06:00pm 12.3 6.7 3.5 55 3.9 WNW 22 32 12 17 1001.0 1001.0 0.0
05/05:30pm 12.4 5.4 4.1 57 3.7 W 30 48 16 26 1001.7 1001.7 0.0
05/05:01pm 13.2 5.3 4.6 56 4.0 W 35 67 19 36 1001.8 1001.8 0.0
05/05:00pm 13.3 5.8 4.2 54 4.2 W 33 46 18 25 1001.9 1001.9 0.0
05/04:30pm 13.9 7.8 4.8 54 4.2 W 26 39 14 21 1002.5 1002.4 0.0
05/04:21pm 14.1 6.6 4.4 52 4.5 W 33 52 18 28 1002.9 1002.8 0.0
05/04:12pm 13.1 5.0 3.5 52 4.3 W 35 50 19 27 1003.2 1003.1 0.0
05/04:09pm 13.4 5.0 3.8 52 4.3 W 37 50 20 27 1003.1 1003.0 0.0
05/04:00pm 12.6 5.3 5.5 62 3.3 W 33 48 18 26 1003.4 1003.3 0.0
05/03:36pm 13.9 7.2 5.5 57 4.0 W 30 50 16 27 1003.9 1003.8 0.0
05/03:30pm 13.0 5.2 4.7 57 3.8 W 35 50 19 27 1004.1 1004.0 0.0
05/03:13pm 12.4 3.0 4.6 59 3.6 W 43 56 23 30 1004.5 1004.4 0.0
05/03:00pm 13.3 4.9 3.9 53 4.3 WSW 37 52 20 28 1004.4 1004.3 0.0
05/02:43pm 13.8 5.2 4.9 55 4.1 WSW 39 61 21 33 1004.8 1004.7 0.0
05/02:30pm 14.3 6.9 4.9 53 4.4 WSW 33 50 18 27 1005.1 1005.0 0.0
05/02:00pm 13.0 3.2 5.4 60 3.6 WSW 46 63 25 34 1005.5 1005.4 0.0
05/01:57pm 13.5 4.8 5.9 60 3.6 WSW 41 63 22 34 1005.3 1005.2 0.0
05/01:55pm 13.5 5.4 5.4 58 3.8 WSW 37 54 20 29 1005.2 1005.1 0.0
05/01:30pm 14.4 8.5 6.0 57 4.0 WSW 26 33 14 18 1005.6 1005.5 0.0
05/01:00pm 14.0 6.2 4.9 54 4.2 WSW 35 50 19 27 1006.1 1006.0 0.0
05/12:30pm 13.9 6.4 4.5 53 4.3 WSW 33 44 18 24 1006.1 1006.0 0.0
05/12:00pm 12.0 2.3 4.0 58 3.6 WSW 44 65 24 35 1006.4 1006.3 0.0
05/11:56am 12.6 3.1 3.8 55 4.0 WSW 43 65 23 35 1006.1 1006.0 0.0
05/11:30am 13.5 5.5 3.6 51 4.5 WSW 35 46 19 25 1005.9 1005.8 0.0
05/11:00am 12.8 5.4 4.0 55 4.0 SW 32 57 17 31 1006.0 1005.9 0.0
05/10:51am 12.3 5.5 3.3 54 4.0 WSW 28 48 15 26 1006.0 1005.9 0.0
05/10:30am 11.7 4.4 4.7 62 3.2 SW 32 43 17 23 1006.1 1006.0 0.0
05/10:01am 11.2 2.8 3.7 60 3.3 WSW 37 56 20 30 1005.7 1005.6 0.0
05/10:00am 11.1 3.1 3.6 60 3.3 WSW 35 54 19 29 1005.7 1005.6 0.0
05/09:58am 11.5 3.8 3.5 58 3.5 WSW 33 54 18 29 1005.6 1005.5 0.0
05/09:30am 10.8 3.7 3.4 60 3.2 WSW 30 39 16 21 1005.2 1005.1 0.0
05/09:00am 9.8 1.7 3.1 63 2.9 WSW 35 50 19 27 1004.7 1004.6 2.4
05/08:46am 10.2 2.7 4.6 68 2.5 WSW 33 59 18 32 1004.7 1004.6 2.4
05/08:30am 9.5 3.0 4.9 73 2.1 WSW 28 35 15 19 1004.1 1004.0 2.4
05/08:00am 9.3 3.1 4.5 72 2.1 SW 26 35 14 19 1003.6 1003.5 2.4
05/07:30am 9.1 0.9 4.5 73 2.0 WSW 37 54 20 29 1002.6 1002.5 2.4
05/07:00am 8.6 0.8 5.0 78 1.6 WSW 35 44 19 24 1001.5 1001.5 2.4
05/06:30am 8.4 1.9 4.8 78 1.6 WSW 28 37 15 20 1000.7 1000.7 2.2
05/06:00am 8.6 0.2 5.4 80 1.4 WSW 39 54 21 29 1000.3 1000.3 2.2
05/05:51am 8.8 2.4 5.0 77 1.7 WSW 28 54 15 29 1000.0 1000.0 2.0
05/05:49am 8.8 3.5 5.0 77 1.7 WSW 22 44 12 24 1000.0 1000.0 2.0
05/05:30am 8.1 4.9 5.0 81 1.4 W 11 20 6 11 999.5 999.5 2.0
05/05:00am 8.5 3.3 5.6 82 1.3 SW 22 33 12 18 999.3 999.3 2.0
05/04:30am 8.6 3.4 5.5 81 1.4 WSW 22 28 12 15 998.6 998.6 1.4
05/04:00am 8.8 3.3 5.9 82 1.3 WSW 24 33 13 18 998.4 998.4 1.2
05/03:30am 9.8 4.1 6.5 80 1.5 WSW 26 39 14 21 998.1 998.1 0.2
05/03:00am 10.0 4.7 5.2 72 2.2 WSW 22 32 12 17 997.1 997.1 0.0
05/02:30am 10.7 7.7 6.1 73 2.1 SSW 11 24 6 13 997.1 997.1 0.0
05/02:00am 10.9 7.2 6.3 73 2.2 W 15 22 8 12 996.8 996.8 0.0
05/01:30am 11.1 8.6 6.5 73 2.2 SSW 9 13 5 7 997.1 997.1 0.0
05/01:00am 11.6 6.8 7.3 75 2.1 WSW 22 33 12 18 997.1 997.1 0.0
05/12:30am 11.8 6.0 7.9 77 1.9 W 28 37 15 20 996.5 996.5 0.0
05/12:00am 12.4 3.7 7.9 74 2.2 WSW 43 57 23 31 996.0 996.0 0.0
 
Date/Time
EDT
Tmp

°C
App
Tmp
°C
Dew
Point
°C
Rel
Hum
%
Delta-T

°C
Wind Press
QNH
hPa
Press
MSL
hPa
Rain
since
9 am
mm
Dir
 
Spd
km/h
Gust
km/h
Spd
kts
Gust
kts
04/11:51pm 12.8 4.1 7.5 70 2.6 W 43 57 23 31 996.0 996.0 0.0
04/11:30pm 13.9 7.3 7.7 66 3.1 W 32 39 17 21 995.6 995.6 0.0
04/11:02pm 13.0 7.5 9.1 77 2.0 WSW 28 48 15 26 995.8 995.8 0.0
04/11:00pm 13.1 6.6 9.0 76 2.1 WSW 33 48 18 26 995.9 995.9 0.0
04/10:30pm 15.7 9.9 8.0 60 3.9 W 28 43 15 23 996.1 996.1 0.0
04/10:00pm 15.9 9.1 7.1 56 4.4 W 32 41 17 22 996.4 996.4 0.0
04/09:30pm 15.7 10.9 7.2 57 4.2 W 22 33 12 18 996.4 996.4 0.0
04/09:11pm 15.7 8.9 7.7 59 4.0 W 33 52 18 28 996.4 996.4 0.0
04/09:00pm 16.0 9.3 7.5 57 4.3 W 32 43 17 23 996.4 996.4 0.0
04/08:32pm 16.2 10.2 7.2 55 4.5 WNW 28 52 15 28 997.0 997.0 0.0
04/08:30pm 16.1 11.1 8.1 59 4.0 WNW 24 44 13 24 997.0 997.0 0.0
04/08:16pm 16.0 10.0 8.5 61 3.8 WNW 30 48 16 26 996.7 996.7 0.0
04/08:00pm 16.1 10.5 8.6 61 3.9 WNW 28 37 15 20 997.2 997.2 0.0
04/07:30pm 16.9 12.9 8.3 57 4.4 WNW 19 35 10 19 997.0 997.0 0.0
04/07:00pm 17.4 14.4 7.7 53 4.9 WNW 13 30 7 16 997.3 997.3 0.0
04/06:30pm 17.7 11.0 8.3 54 4.8 WNW 33 50 18 27 997.8 997.8 0.0
04/06:00pm 18.4 11.1 8.9 54 5.0 W 37 48 20 26 998.2 998.2 0.0
04/05:33pm 18.9 11.9 7.0 46 6.0 WNW 33 52 18 28 998.1 998.1 0.0
04/05:30pm 18.9 11.6 7.4 47 5.8 WNW 35 52 19 28 998.0 998.0 0.0
04/05:00pm 19.8 11.7 7.2 44 6.4 W 39 59 21 32 997.9 997.9 0.0
04/04:30pm 20.1 13.4 7.5 44 6.5 WNW 32 54 17 29 998.4 998.4 0.0
04/04:00pm 19.7 13.7 8.7 49 5.8 W 30 52 16 28 998.8 998.8 0.0
04/03:36pm 19.9 12.1 8.3 47 6.0 W 39 57 21 31 999.3 999.3 0.0
04/03:30pm 19.8 11.0 8.2 47 6.0 W 44 57 24 31 999.3 999.3 0.0
04/03:00pm 20.9 12.6 10.1 50 5.9 W 44 67 24 36 999.9 999.9 0.0
04/02:39pm 19.7 14.3 7.8 46 6.1 WNW 26 70 14 38 999.6 999.6 0.0
04/02:38pm 19.8 14.9 8.5 48 5.9 WNW 24 56 13 30 999.8 999.8 0.0
04/02:30pm 20.2 16.3 8.5 47 6.1 W 19 35 10 19 1000.2 1000.2 0.0
04/02:00pm 19.5 15.9 10.0 54 5.1 W 19 32 10 17 1000.0 1000.0 0.0
04/01:38pm 19.2 15.9 9.7 54 5.0 NW 17 39 9 21 1000.0 1000.0 0.0
04/01:30pm 18.7 17.0 9.8 56 4.7 ENE 9 20 5 11 1000.4 1000.4 0.0
04/01:00pm 17.8 16.8 10.2 61 4.1 NW 6 7 3 4 1000.5 1000.5 0.0
04/12:30pm 17.7 13.7 10.6 63 3.8 WSW 22 32 12 17 1001.0 1001.0 0.0
04/12:00pm 15.9 13.4 10.9 72 2.7 SW 15 26 8 14 1002.1 1002.0 0.0
04/11:30am 18.3 13.5 10.4 60 4.2 W 26 35 14 19 1001.7 1001.7 0.0
04/11:08am 18.1 13.1 9.7 58 4.4 WSW 26 59 14 32 1001.4 1001.4 0.0
04/11:00am 18.1 12.3 9.5 57 4.5 W 30 41 16 22 1001.8 1001.8 0.0
04/10:30am 17.8 15.5 8.9 56 4.6 WNW 11 26 6 14 1002.2 1002.1 0.0
04/10:00am 17.2 14.7 8.1 55 4.7 NW 11 19 6 10 1002.2 1002.1 0.0
04/09:30am 16.7 12.3 8.9 60 4.0 NNW 22 35 12 19 1002.5 1002.4 0.0
04/09:00am 16.3 13.0 9.7 65 3.5 N 17 30 9 16 1002.7 1002.6 0.0
04/08:30am 16.0 12.9 8.7 62 3.7 N 15 26 8 14 1002.9 1002.8 0.0
04/08:00am 16.0 12.8 9.9 67 3.2 N 17 22 9 12 1003.0 1002.9 0.0
04/07:30am 15.8 12.6 8.5 62 3.7 NNW 15 28 8 15 1003.0 1002.9 0.0
04/07:00am 15.6 11.6 8.1 61 3.8 N 19 33 10 18 1003.1 1003.0 0.0
04/06:30am 15.5 12.1 7.5 59 4.0 N 15 22 8 12 1003.4 1003.3 0.0
04/06:00am 15.5 11.6 7.3 58 4.1 NNW 17 24 9 13 1003.4 1003.3 0.0
04/05:30am 15.4 10.9 6.9 57 4.2 WNW 20 28 11 15 1003.7 1003.6 0.0
04/05:00am 15.3 11.1 7.3 59 4.0 NW 19 28 10 15 1004.1 1004.0 0.0
04/04:30am 15.1 11.5 6.9 58 4.0 NW 15 24 8 13 1004.3 1004.2 0.0
04/04:00am 15.2 10.7 7.0 58 4.0 NNW 20 30 11 16 1004.5 1004.4 0.0
04/03:35am 15.3 8.9 6.8 57 4.2 NW 30 48 16 26 1004.8 1004.7 0.0
04/03:30am 15.2 8.1 6.5 56 4.2 NW 33 48 18 26 1005.0 1004.9 0.0
04/03:04am 15.0 8.6 6.8 58 4.0 WNW 30 56 16 30 1005.2 1005.1 0.0
04/03:00am 14.7 8.9 6.3 57 4.1 WNW 26 37 14 20 1005.2 1005.1 0.0
04/02:30am 14.9 9.7 5.7 54 4.4 NW 22 44 12 24 1006.1 1006.0 0.0
04/02:00am 14.6 10.8 5.9 56 4.2 NNW 15 20 8 11 1007.0 1006.9 0.0
04/01:30am 14.3 9.4 5.1 54 4.3 WNW 20 32 11 17 1007.5 1007.4 0.0
04/01:00am 14.3 8.8 5.9 57 4.0 WNW 24 43 13 23 1007.8 1007.7 0.0
04/12:53am 14.3 10.0 5.4 55 4.2 W 17 43 9 23 1007.8 1007.7 0.0
04/12:30am 14.3 11.8 4.9 53 4.4 NW 7 15 4 8 1008.2 1008.1 0.0
04/12:00am 14.2 10.5 4.5 52 4.5 NW 13 22 7 12 1008.7 1008.6 0.0
 
Date/Time
EDT
Tmp

°C
App
Tmp
°C
Dew
Point
°C
Rel
Hum
%
Delta-T

°C
Wind Press
QNH
hPa
Press
MSL
hPa
Rain
since
9 am
mm
Dir
 
Spd
km/h
Gust
km/h
Spd
kts
Gust
kts
03/11:30pm 14.5 8.4 5.0 53 4.4 WNW 26 35 14 19 1008.9 1008.8 0.0
03/11:00pm 14.5 7.3 4.8 52 4.5 W 32 43 17 23 1009.4 1009.3 0.0
03/10:30pm 14.9 6.4 5.1 52 4.6 W 39 52 21 28 1010.0 1009.9 0.0
03/10:14pm 14.5 8.2 5.8 56 4.1 W 28 41 15 22 1010.1 1010.0 0.0
03/10:00pm 13.5 9.6 7.1 65 3.1 W 17 20 9 11 1010.4 1010.3 0.0
03/09:30pm 11.7 9.9 7.0 73 2.2 SSW 6 9 3 5 1010.6 1010.5 0.0
03/09:00pm 12.0 10.0 7.1 72 2.4 SW 7 7 4 4 1010.7 1010.6 0.0
03/08:30pm 12.2 10.0 7.7 74 2.2 SW 9 11 5 6 1010.6 1010.5 0.0
03/08:00pm 13.6 11.1 8.0 69 2.8 SW 11 15 6 8 1010.5 1010.4 0.0
03/07:30pm 14.6 12.1 8.1 65 3.2 SE 11 17 6 9 1010.6 1010.5 0.0
03/07:00pm 15.1 11.3 7.6 61 3.7 ESE 17 22 9 12 1010.9 1010.8 0.0
03/06:30pm 15.4 11.2 7.4 59 4.0 ESE 19 26 10 14 1011.0 1010.9 0.0
03/06:00pm 15.9 11.6 7.7 58 4.1 ESE 20 26 11 14 1010.9 1010.8 0.0
03/05:30pm 16.6 12.9 7.8 56 4.4 SE 17 24 9 13 1010.9 1010.8 0.0
03/05:00pm 16.9 12.2 7.8 55 4.6 ESE 22 28 12 15 1011.1 1011.0 0.0
03/04:30pm 17.5 13.0 7.0 50 5.2 ESE 20 26 11 14 1011.1 1011.0 0.0
03/04:00pm 18.6 15.1 8.6 52 5.2 ESE 17 22 9 12 1011.5 1011.4 0.0
03/03:30pm 17.0 13.2 7.4 53 4.8 ESE 17 20 9 11 1011.7 1011.6 0.0
03/03:00pm 18.1 14.9 6.9 48 5.6 ESE 13 17 7 9 1012.1 1012.0 0.0
03/02:30pm 19.3 14.7 3.5 35 7.4 W 17 24 9 13 1012.3 1012.2 0.0
03/02:00pm 19.4 15.4 4.7 38 7.1 WNW 15 26 8 14 1012.5 1012.4 0.0
03/01:30pm 18.7 14.8 3.3 36 7.2 W 13 19 7 10 1013.1 1013.0 0.0
03/01:00pm 18.6 14.8 4.0 38 6.9 SW 13 19 7 10 1013.4 1013.3 0.0
03/12:30pm 17.9 14.0 3.4 38 6.7 WSW 13 19 7 10 1013.9 1013.8 0.0
03/12:00pm 17.6 13.7 3.5 39 6.5 W 13 20 7 11 1014.4 1014.3 0.0
03/11:30am 16.0 10.9 4.1 45 5.5 W 20 26 11 14 1014.7 1014.6 0.0
03/11:00am 16.8 12.2 3.5 41 6.1 WNW 17 20 9 11 1014.7 1014.6 0.0
03/10:30am 16.3 11.0 5.0 47 5.4 W 22 32 12 17 1014.7 1014.6 0.0
03/10:00am 16.0 10.1 5.9 51 4.9 W 26 37 14 20 1014.5 1014.4 0.0
03/09:30am 16.3 10.7 5.3 48 5.3 W 24 35 13 19 1014.4 1014.3 0.0
03/09:00am 15.5 11.8 6.2 54 4.5 WSW 15 20 8 11 1014.4 1014.3 0.2
03/08:30am 13.7 11.9 7.2 65 3.2 W 6 13 3 7 1014.1 1014.0 0.2
03/08:00am 13.5 12.2 7.7 68 2.9 S 4 7 2 4 1013.9 1013.8 0.2
03/07:30am 13.5 10.5 7.5 67 2.9 SW 13 19 7 10 1013.6 1013.5 0.2
03/07:00am 12.7 11.7 8.8 77 2.0 SE 4 7 2 4 1013.2 1013.1 0.2
03/06:30am 12.9 11.8 8.6 75 2.1 SSW 4 7 2 4 1012.7 1012.6 0.2
03/06:00am 13.9 10.0 8.7 71 2.6 SW 19 26 10 14 1012.2 1012.1 0.2
03/05:30am 13.7 11.8 9.0 73 2.4 SSW 9 17 5 9 1011.8 1011.7 0.2
03/05:00am 14.2 11.2 9.4 73 2.5 SW 15 20 8 11 1011.5 1011.4 0.2
03/04:30am 14.8 11.8 9.2 69 2.9 SW 15 19 8 10 1011.4 1011.3 0.2
03/04:00am 14.8 12.4 8.7 67 3.1 SSW 11 15 6 8 1011.2 1011.1 0.2
03/03:30am 15.4 13.7 7.4 59 4.0 WNW 6 7 3 4 1011.0 1010.9 0.2
03/03:00am 15.5 12.9 7.8 60 3.9 NW 11 13 6 7 1010.8 1010.7 0.2
03/02:30am 15.6 13.0 7.6 59 4.0 NNW 11 15 6 8 1010.9 1010.8 0.2
03/02:00am 15.3 12.1 6.8 57 4.2 NNW 13 20 7 11 1011.1 1011.0 0.2
03/01:30am 15.4 12.0 7.7 60 3.8 NW 15 22 8 12 1011.2 1011.1 0.2
03/01:00am 15.6 11.6 6.6 55 4.4 NW 17 24 9 13 1011.5 1011.4 0.2
03/12:30am 15.2 11.4 6.0 54 4.4 WNW 15 20 8 11 1011.8 1011.7 0.2
03/12:00am 14.9 11.8 5.7 54 4.4 WNW 11 17 6 9 1012.0 1011.9 0.2
 
Date/Time
EDT
Tmp

°C
App
Tmp
°C
Dew
Point
°C
Rel
Hum
%
Delta-T

°C
Wind Press
QNH
hPa
Press
MSL
hPa
Rain
since
9 am
mm
Dir
 
Spd
km/h
Gust
km/h
Spd
kts
Gust
kts
02/11:30pm 15.1 11.4 6.1 55 4.3 NW 15 19 8 10 1012.4 1012.3 0.2
02/11:00pm 15.4 8.9 6.4 55 4.4 WNW 30 43 16 23 1012.3 1012.2 0.2

Latest Capital City Observations: Canberra | Sydney | Melbourne | Brisbane | Adelaide | Perth | Hobart | Darwin

Other Formats:

Comma delimited format used in spreadsheet applications
http://www.bom.gov.au/fwo/IDT60901/IDT60901.94988.axf

JavaScript Object Notation format (JSON) in row-major order
http://www.bom.gov.au/fwo/IDT60901/IDT60901.94988.json